Time;durP1;ratioP1;P1;durP2;ratioP2;P2;SDS_P1;SDS_P2;PMS_P1;PMS_P2;Temp;Humidity;BMP_temperature;BMP_pressure;BME280_temperature;BME280_humidity;BME280_pressure;Samples;Min_cycle;Max_cycle;Signal;HPM_P1;HPM_P2
2021/08/14 00:00:04;;;;;;;44.78;40.97;;;34.70;92.50;;;;;;5008676;28;20265;-91
2021/08/14 00:02:35;;;;;;;44.63;40.72;;;34.20;93.30;;;;;;5002938;28;20597;-91
2021/08/14 00:05:07;;;;;;;46.60;42.38;;;34.10;93.90;;;;;;5014232;28;20195;-92
2021/08/14 00:07:38;;;;;;;43.17;39.60;;;34.00;93.00;;;;;;5016405;28;20206;-92
2021/08/14 00:10:12;;;;;;;41.05;37.45;;;33.90;93.20;;;;;;5012538;28;20210;-92
2021/08/14 00:12:44;;;;;;;41.83;38.13;;;33.80;92.50;;;;;;4998104;28;20225;-92
2021/08/14 00:15:19;;;;;;;36.45;33.03;;;33.80;94.90;;;;;;4996058;28;20214;-92
2021/08/14 00:17:51;;;;;;;35.40;31.85;;;33.80;94.30;;;;;;4981333;28;20196;-93
2021/08/14 00:20:26;;;;;;;34.45;31.38;;;33.60;94.90;;;;;;5010768;28;20210;-92
2021/08/14 00:23:00;;;;;;;32.95;30.13;;;33.70;95.40;;;;;;5011937;28;20242;-94
2021/08/14 00:25:35;;;;;;;33.35;29.80;;;33.70;94.50;;;;;;5010725;28;20213;-93
2021/08/14 00:28:10;;;;;;;32.88;30.02;;;33.60;95.40;;;;;;5012300;28;20214;-92
2021/08/14 00:30:44;;;;;;;32.35;29.55;;;33.50;94.60;;;;;;5016177;28;20224;-93
2021/08/14 00:33:16;;;;;;;32.92;29.85;;;33.50;94.70;;;;;;5028921;28;20216;-92
2021/08/14 00:35:49;;;;;;;33.40;30.42;;;33.50;95.10;;;;;;5013817;28;20201;-91
2021/08/14 00:38:20;;;;;;;32.97;29.90;;;33.50;95.50;;;;;;5028737;28;20205;-93
2021/08/14 00:40:53;;;;;;;31.92;29.02;;;33.40;95.60;;;;;;5005326;28;20304;-92
2021/08/14 00:43:25;;;;;;;31.15;28.33;;;33.30;95.50;;;;;;5027433;28;20233;-91
2021/08/14 00:46:09;;;;;;;31.65;28.55;;;33.30;95.40;;;;;;5028405;28;20265;-92
2021/08/14 00:48:41;;;;;;;31.35;28.55;;;33.00;95.60;;;;;;5026738;28;20399;-92
2021/08/14 01:01:53;;;;;;;31.52;28.75;;;33.80;94.90;;;;;;5065726;28;20219;-92
2021/08/14 01:04:24;;;;;;;32.30;29.38;;;33.90;94.70;;;;;;5068509;28;20270;-92
2021/08/14 01:06:57;;;;;;;31.33;28.52;;;34.20;94.40;;;;;;5068319;28;20299;-92
2021/08/14 01:09:32;;;;;;;31.35;28.63;;;34.30;95.30;;;;;;5068638;28;20204;-93
2021/08/14 01:12:05;;;;;;;33.42;30.42;;;34.40;95.30;;;;;;5051480;28;20220;-93
2021/08/14 01:14:45;;;;;;;32.95;29.88;;;34.40;96.30;;;;;;5069483;28;20200;-90
2021/08/14 01:17:21;;;;;;;32.55;29.65;;;34.50;95.00;;;;;;5050690;28;20197;-92
2021/08/14 01:19:53;;;;;;;31.67;28.98;;;34.50;94.20;;;;;;5048841;28;20235;-93
2021/08/14 01:22:24;;;;;;;32.67;29.88;;;34.60;94.20;;;;;;5048857;28;20189;-93
2021/08/14 01:24:57;;;;;;;32.45;29.65;;;34.50;92.80;;;;;;5047183;28;20256;-93
2021/08/14 01:27:31;;;;;;;32.72;29.42;;;34.60;93.90;;;;;;5032536;28;20213;-93
2021/08/14 01:30:08;;;;;;;33.58;30.42;;;34.60;92.80;;;;;;5070651;28;20219;-93
2021/08/14 01:32:41;;;;;;;32.85;29.95;;;34.50;93.70;;;;;;5072674;28;20204;-93
2021/08/14 01:35:13;;;;;;;34.60;31.08;;;34.40;95.00;;;;;;5072632;28;20212;-93
2021/08/14 01:37:44;;;;;;;33.72;30.50;;;34.40;92.30;;;;;;5072221;28;20200;-92
2021/08/14 01:40:16;;;;;;;33.97;30.90;;;34.30;93.40;;;;;;5075708;28;20261;-93
2021/08/14 01:42:50;;;;;;;32.83;29.85;;;34.20;94.70;;;;;;5071538;28;20212;-92
2021/08/14 01:45:23;;;;;;;33.25;30.30;;;33.90;95.70;;;;;;5055068;28;20266;-92
2021/08/14 01:47:54;;;;;;;35.03;31.65;;;33.50;96.20;;;;;;5040857;28;20228;-92
2021/08/14 01:50:25;;;;;;;34.00;30.77;;;33.10;96.70;;;;;;5050625;28;20223;-93
2021/08/14 01:52:56;;;;;;;35.45;32.15;;;32.90;97.80;;;;;;5049335;28;20209;-92
2021/08/14 01:55:30;;;;;;;33.70;30.63;;;32.70;97.70;;;;;;5054029;28;20204;-92
2021/08/14 01:58:08;;;;;;;35.55;31.92;;;32.50;95.50;;;;;;5057835;28;20197;-92
2021/08/14 02:00:42;;;;;;;34.13;30.88;;;32.50;97.40;;;;;;5055883;28;20216;-91
2021/08/14 02:03:15;;;;;;;34.47;31.10;;;32.50;97.40;;;;;;5054580;28;20675;-92
2021/08/14 02:05:47;;;;;;;36.03;32.60;;;32.40;97.90;;;;;;5056566;28;20208;-92
2021/08/14 02:10:53;;;;;;;35.25;32.05;;;31.70;98.70;;;;;;5304622;22;20249;-92
2021/08/14 02:13:27;;;;;;;34.85;31.88;;;31.40;98.50;;;;;;5057276;28;20541;-91
2021/08/14 02:16:01;;;;;;;35.03;32.03;;;31.20;99.50;;;;;;5058168;28;20220;-92
2021/08/14 02:18:34;;;;;;;35.95;32.58;;;30.90;99.90;;;;;;5058582;28;20200;-92
2021/08/14 02:21:06;;;;;;;36.05;32.83;;;30.80;99.90;;;;;;5057236;28;20213;-92
2021/08/14 02:23:37;;;;;;;36.13;32.88;;;30.60;99.90;;;;;;5041059;28;20229;-92
2021/08/14 02:26:09;;;;;;;35.83;32.45;;;30.50;99.90;;;;;;5040443;28;20209;-92
2021/08/14 02:28:42;;;;;;;35.75;32.20;;;30.30;99.90;;;;;;5040263;28;20227;-92
2021/08/14 02:31:14;;;;;;;35.33;32.08;;;30.20;99.90;;;;;;5063300;22;20197;-92
2021/08/14 02:33:46;;;;;;;35.67;32.55;;;30.10;99.90;;;;;;4983360;28;20203;-92
2021/08/14 02:36:18;;;;;;;36.63;33.25;;;30.00;99.90;;;;;;4998545;28;20218;-91
2021/08/14 02:38:49;;;;;;;37.40;33.83;;;29.90;99.90;;;;;;4983506;28;20314;-92
2021/08/14 02:41:24;;;;;;;38.15;34.47;;;29.80;99.90;;;;;;4980972;28;20222;-91
2021/08/14 02:43:58;;;;;;;37.42;33.53;;;29.60;99.90;;;;;;4980679;28;20264;-91
2021/08/14 02:46:29;;;;;;;36.35;32.95;;;29.60;99.90;;;;;;4995321;28;20212;-91
2021/08/14 02:49:02;;;;;;;36.67;33.47;;;29.40;99.90;;;;;;4999352;28;20257;-91
2021/08/14 02:51:33;;;;;;;35.90;32.65;;;29.40;99.90;;;;;;4981488;28;20245;-92
2021/08/14 02:54:05;;;;;;;37.00;33.33;;;29.30;99.90;;;;;;5005499;28;20214;-90
2021/08/14 02:56:36;;;;;;;37.20;33.67;;;29.20;99.90;;;;;;5005152;28;20252;-91
2021/08/14 02:59:09;;;;;;;35.15;31.85;;;29.10;99.90;;;;;;4981938;28;20222;-92
2021/08/14 03:01:41;;;;;;;36.50;33.30;;;29.00;99.90;;;;;;4998123;28;20230;-91
2021/08/14 03:04:14;;;;;;;35.37;32.17;;;28.90;99.90;;;;;;4997720;28;20240;-91
2021/08/14 03:06:47;;;;;;;38.37;34.80;;;28.80;99.90;;;;;;4998080;28;20218;-91
2021/08/14 03:09:18;;;;;;;36.50;33.07;;;28.70;99.90;;;;;;5000139;28;20734;-91
2021/08/14 03:11:49;;;;;;;37.10;33.90;;;28.60;99.90;;;;;;4997335;28;20214;-92
2021/08/14 03:14:22;;;;;;;38.90;35.20;;;28.60;99.90;;;;;;4999062;28;20208;-91
2021/08/14 03:16:53;;;;;;;38.87;34.90;;;28.50;99.90;;;;;;4998173;28;20252;-91
2021/08/14 03:19:24;;;;;;;39.53;35.67;;;28.40;99.90;;;;;;4998451;28;20217;-91
2021/08/14 03:21:56;;;;;;;38.30;34.40;;;28.20;99.90;;;;;;4997937;28;20623;-91
2021/08/14 03:24:28;;;;;;;39.03;35.30;;;28.20;99.90;;;;;;4957397;28;20239;-92
2021/08/14 03:27:00;;;;;;;38.80;35.40;;;28.10;99.90;;;;;;4975663;28;20215;-91
2021/08/14 03:29:33;;;;;;;38.03;34.57;;;27.90;99.90;;;;;;4980745;28;20207;-91
2021/08/14 03:32:07;;;;;;;38.60;35.00;;;27.80;99.90;;;;;;4992877;28;20246;-91
2021/08/14 03:34:39;;;;;;;40.60;36.70;;;27.70;99.90;;;;;;4987566;28;20206;-93
2021/08/14 03:37:11;;;;;;;39.33;35.63;;;27.50;99.90;;;;;;4991215;28;20215;-92
2021/08/14 03:39:42;;;;;;;41.33;37.30;;;27.40;99.90;;;;;;4983012;28;20214;-91
2021/08/14 03:42:13;;;;;;;40.20;36.43;;;27.30;99.90;;;;;;4987605;28;20231;-91
2021/08/14 03:44:50;;;;;;;40.80;36.50;;;27.20;99.90;;;;;;4992715;28;20242;-91
2021/08/14 03:50:03;;;;;;;40.40;36.70;;;27.00;99.90;;;;;;5244398;23;20249;-92
2021/08/14 03:52:34;;;;;;;40.47;36.63;;;26.90;99.90;;;;;;5010955;28;20206;-92
2021/08/14 03:55:06;;;;;;;40.73;37.13;;;26.80;99.90;;;;;;5010568;28;20206;-93
2021/08/14 03:57:38;;;;;;;41.37;37.60;;;26.70;99.90;;;;;;5009535;28;20297;-92
2021/08/14 04:00:16;;;;;;;40.83;37.20;;;26.70;99.90;;;;;;5011152;28;20290;-94
2021/08/14 04:02:48;;;;;;;41.17;37.57;;;26.60;99.90;;;;;;4993571;28;20229;-92
2021/08/14 04:05:34;;;;;;;41.50;37.53;;;26.60;99.90;;;;;;5253047;22;21496;-91
2021/08/14 04:13:24;;;;;;;42.30;38.07;;;26.40;99.90;;;;;;5047355;28;20228;-92
2021/08/14 04:16:00;;;;;;;50.90;45.60;;;26.40;99.90;;;;;;5042527;28;20216;-93
2021/08/14 04:18:58;;;;;;;46.83;42.23;;;26.30;99.90;;;;;;5056760;28;20219;-93
2021/08/14 04:36:10;;;;;;;44.33;40.30;;;25.60;99.90;;;;;;5319031;22;20223;-92
2021/08/14 04:38:41;;;;;;;42.10;38.27;;;25.50;99.90;;;;;;4994602;28;20225;-92
2021/08/14 04:41:13;;;;;;;44.50;40.17;;;25.50;99.90;;;;;;5000633;28;20214;-92
2021/08/14 04:43:45;;;;;;;43.10;39.07;;;25.40;99.90;;;;;;5010076;28;20229;-92
2021/08/14 04:46:16;;;;;;;43.90;39.97;;;25.40;99.90;;;;;;4992848;28;20221;-92
2021/08/14 04:48:48;;;;;;;44.80;40.57;;;25.30;99.90;;;;;;4992115;28;20297;-92
2021/08/14 04:51:22;;;;;;;43.67;39.57;;;25.30;99.90;;;;;;4999727;28;20218;-92
2021/08/14 04:53:54;;;;;;;43.93;40.03;;;25.20;99.90;;;;;;5010408;28;20229;-91
2021/08/14 04:56:26;;;;;;;43.37;39.37;;;25.20;99.90;;;;;;5016028;28;20217;-92
2021/08/14 04:58:58;;;;;;;44.97;40.90;;;25.10;99.90;;;;;;5000340;28;20213;-92
2021/08/14 05:04:11;;;;;;;44.77;40.73;;;25.00;99.90;;;;;;5134968;23;20259;-92
2021/08/14 05:06:46;;;;;;;46.40;41.80;;;25.00;99.90;;;;;;5012879;28;20260;-92
2021/08/14 05:09:18;;;;;;;46.20;42.00;;;24.90;99.90;;;;;;5025896;28;20219;-90
2021/08/14 05:11:52;;;;;;;45.43;41.03;;;24.90;99.90;;;;;;5031991;28;20240;-91
2021/08/14 05:14:24;;;;;;;47.87;43.27;;;24.80;99.90;;;;;;5063100;23;20259;-89
2021/08/14 05:16:57;;;;;;;47.87;43.27;;;24.80;99.90;;;;;;5033585;28;20418;-91
2021/08/14 05:19:29;;;;;;;49.30;44.40;;;24.70;99.90;;;;;;5026005;28;20217;-91
2021/08/14 05:22:02;;;;;;;47.03;42.43;;;24.50;99.90;;;;;;5029453;28;20237;-89
2021/08/14 05:24:34;;;;;;;47.07;42.67;;;24.50;99.90;;;;;;5032594;28;20228;-90
2021/08/14 05:27:05;;;;;;;47.30;42.83;;;24.40;99.90;;;;;;5020284;28;20658;-91
2021/08/14 05:29:38;;;;;;;46.93;42.53;;;24.30;99.90;;;;;;5032548;28;20320;-91
2021/08/14 05:32:12;;;;;;;47.03;42.43;;;24.30;99.90;;;;;;5013104;28;20211;-91
2021/08/14 05:34:44;;;;;;;45.37;41.20;;;24.30;99.90;;;;;;5033667;28;20221;-91
2021/08/14 05:37:17;;;;;;;47.63;43.03;;;24.30;99.90;;;;;;5028174;28;20634;-91
2021/08/14 05:39:48;;;;;;;48.40;43.73;;;24.30;99.90;;;;;;5025732;28;20233;-92
2021/08/14 05:42:21;;;;;;;46.20;41.73;;;24.20;99.90;;;;;;5018919;28;20627;-90
2021/08/14 05:44:52;;;;;;;46.50;42.17;;;24.20;99.90;;;;;;5002629;28;20213;-91
2021/08/14 05:47:24;;;;;;;44.80;40.43;;;24.10;99.90;;;;;;5019360;28;20245;-92
2021/08/14 05:49:56;;;;;;;47.30;42.80;;;24.10;99.90;;;;;;5020293;28;20236;-91
2021/08/14 05:52:30;;;;;;;48.33;43.83;;;24.10;99.90;;;;;;5018513;28;20284;-91
2021/08/14 05:55:02;;;;;;;47.00;42.57;;;24.10;99.90;;;;;;5025135;28;20245;-91
2021/08/14 05:57:34;;;;;;;46.93;42.60;;;24.00;99.90;;;;;;5020122;28;20345;-91
2021/08/14 06:00:05;;;;;;;47.20;42.77;;;24.00;99.90;;;;;;5008737;28;20210;-91
2021/08/14 06:02:37;;;;;;;46.63;42.27;;;24.00;99.90;;;;;;5039594;28;20197;-91
2021/08/14 06:05:21;;;;;;;46.20;42.00;;;23.90;99.90;;;;;;5043730;28;20228;-91
2021/08/14 06:07:55;;;;;;;46.33;42.13;;;23.90;99.90;;;;;;5040067;28;20213;-91
2021/08/14 06:10:27;;;;;;;45.37;41.23;;;23.80;99.90;;;;;;5039349;28;20685;-91
2021/08/14 06:12:59;;;;;;;47.90;43.43;;;23.80;99.90;;;;;;5039856;28;20267;-91
2021/08/14 06:15:31;;;;;;;48.70;43.87;;;23.80;99.90;;;;;;4996036;28;20294;-91
2021/08/14 06:18:02;;;;;;;47.27;42.77;;;23.70;99.90;;;;;;5000267;28;20209;-91
2021/08/14 06:20:33;;;;;;;49.67;44.83;;;23.60;99.90;;;;;;4998926;28;20320;-92
2021/08/14 06:23:07;;;;;;;50.60;45.67;;;23.60;99.90;;;;;;4999129;28;20249;-91
2021/08/14 06:25:39;;;;;;;49.33;44.53;;;23.60;99.90;;;;;;5011731;28;20234;-91
2021/08/14 06:28:11;;;;;;;50.47;45.63;;;23.50;99.90;;;;;;5013108;28;20244;-93
2021/08/14 06:30:43;;;;;;;49.20;44.30;;;23.50;99.90;;;;;;5008229;28;20202;-91
2021/08/14 06:33:15;;;;;;;48.00;43.50;;;23.40;99.90;;;;;;5000576;28;20285;-92
2021/08/14 06:35:46;;;;;;;48.80;44.10;;;23.40;99.90;;;;;;4999662;28;20210;-91
2021/08/14 06:38:20;;;;;;;48.23;43.77;;;23.30;99.90;;;;;;5002603;28;20273;-91
2021/08/14 06:40:52;;;;;;;47.93;43.43;;;23.30;99.90;;;;;;4998858;28;20206;-92
2021/08/14 06:43:23;;;;;;;48.00;43.60;;;23.30;99.90;;;;;;4999435;28;20293;-91
2021/08/14 06:45:55;;;;;;;48.73;44.27;;;23.20;99.90;;;;;;4983092;28;20261;-90
2021/08/14 06:48:27;;;;;;;50.17;45.33;;;23.30;99.90;;;;;;4976989;28;20364;-90
2021/08/14 06:50:59;;;;;;;51.13;46.27;;;23.20;99.90;;;;;;5001534;28;20214;-91
2021/08/14 06:53:33;;;;;;;52.23;47.20;;;23.10;99.90;;;;;;5000197;28;20271;-91
2021/08/14 06:56:04;;;;;;;52.80;47.90;;;23.10;99.90;;;;;;4999514;28;20261;-91
2021/08/14 06:58:39;;;;;;;52.83;47.80;;;23.10;99.90;;;;;;4999712;28;20754;-90
2021/08/14 07:01:14;;;;;;;52.63;47.63;;;23.00;99.90;;;;;;4971370;28;20214;-90
2021/08/14 07:03:46;;;;;;;54.10;48.97;;;23.00;99.90;;;;;;5023570;28;20212;-91
2021/08/14 07:06:27;;;;;;;54.33;49.03;;;23.00;99.90;;;;;;5041861;28;20256;-91
2021/08/14 07:09:00;;;;;;;57.47;52.03;;;23.10;99.90;;;;;;5041077;28;20235;-90
2021/08/14 07:11:33;;;;;;;57.30;51.80;;;23.10;99.90;;;;;;5045432;28;20227;-92
2021/08/14 07:14:04;;;;;;;58.53;52.77;;;23.10;99.90;;;;;;5047164;28;20241;-92
2021/08/14 07:16:35;;;;;;;60.43;54.80;;;23.00;99.90;;;;;;5029305;28;20225;-91
2021/08/14 07:19:07;;;;;;;63.80;57.63;;;23.00;99.90;;;;;;5034577;28;20212;-90
2021/08/14 07:21:39;;;;;;;62.90;56.90;;;23.00;99.90;;;;;;5036517;28;20202;-90
2021/08/14 07:24:14;;;;;;;64.13;57.97;;;23.00;99.90;;;;;;5038016;28;20212;-91
2021/08/14 07:26:45;;;;;;;62.53;56.43;;;23.00;99.90;;;;;;5037560;28;20225;-93
2021/08/14 07:29:18;;;;;;;66.33;59.93;;;22.90;99.90;;;;;;5037548;28;20213;-91
2021/08/14 07:31:49;;;;;;;66.37;60.03;;;22.80;99.90;;;;;;5036809;28;20198;-91
2021/08/14 07:34:20;;;;;;;64.60;58.17;;;22.70;99.90;;;;;;5037724;28;20222;-92
2021/08/14 07:36:51;;;;;;;69.10;62.20;;;22.70;99.90;;;;;;5035347;28;20236;-91
2021/08/14 07:39:25;;;;;;;72.00;64.63;;;22.70;99.90;;;;;;5029956;28;20205;-92
2021/08/14 07:41:56;;;;;;;70.57;63.67;;;22.70;99.90;;;;;;5029218;28;20205;-91
2021/08/14 07:44:28;;;;;;;67.07;60.30;;;22.70;99.90;;;;;;5003878;28;20220;-91
2021/08/14 07:47:20;;;;;;;65.53;59.07;;;22.60;99.90;;;;;;5019649;28;20236;-88
2021/08/14 07:49:51;;;;;;;65.43;58.87;;;22.70;99.90;;;;;;5021115;28;20213;-91
2021/08/14 07:52:22;;;;;;;64.73;58.50;;;22.60;99.90;;;;;;5019760;28;20210;-90
2021/08/14 07:54:55;;;;;;;62.53;56.30;;;22.60;99.90;;;;;;5019186;28;20233;-91
2021/08/14 07:57:29;;;;;;;63.30;56.93;;;22.60;99.90;;;;;;5003064;28;20239;-90
2021/08/14 08:00:03;;;;;;;60.57;54.47;;;22.60;99.90;;;;;;5009241;28;20623;-90
2021/08/14 08:02:34;;;;;;;54.70;49.33;;;22.60;99.90;;;;;;5019247;28;20209;-91
2021/08/14 08:05:07;;;;;;;50.90;45.77;;;22.60;99.90;;;;;;5021243;28;20273;-90
2021/08/14 08:07:40;;;;;;;48.97;44.13;;;22.70;99.90;;;;;;5020145;28;20301;-90
2021/08/14 08:10:16;;;;;;;48.53;43.73;;;22.70;99.90;;;;;;5006259;28;20244;-90
2021/08/14 08:12:48;;;;;;;45.80;41.20;;;22.70;99.90;;;;;;5022334;28;20223;-89
2021/08/14 08:15:21;;;;;;;44.67;40.17;;;22.60;99.90;;;;;;4997612;28;20453;-91
2021/08/14 08:17:53;;;;;;;45.17;40.50;;;22.60;99.90;;;;;;4999515;28;20297;-91
2021/08/14 08:20:24;;;;;;;42.00;37.70;;;22.60;99.90;;;;;;5007136;28;20210;-88
2021/08/14 08:22:58;;;;;;;38.47;34.33;;;22.60;99.90;;;;;;5015806;28;20194;-91
2021/08/14 08:25:31;;;;;;;37.80;33.17;;;22.60;99.90;;;;;;5011363;28;20198;-90
2021/08/14 08:28:04;;;;;;;33.13;29.67;;;22.60;99.90;;;;;;5004947;28;20234;-91
2021/08/14 08:30:39;;;;;;;32.93;28.20;;;22.50;99.90;;;;;;5002815;28;20251;-90
2021/08/14 08:33:10;;;;;;;27.10;23.87;;;22.40;99.90;;;;;;5002995;28;20218;-91
2021/08/14 08:35:42;;;;;;;24.17;21.27;;;22.50;99.90;;;;;;4985952;28;20222;-91
2021/08/14 08:38:14;;;;;;;21.40;19.17;;;22.40;99.90;;;;;;5010041;28;20214;-91
2021/08/14 08:40:48;;;;;;;20.33;18.13;;;22.40;99.90;;;;;;5008885;28;20214;-91
2021/08/14 08:43:19;;;;;;;20.37;16.33;;;22.40;99.90;;;;;;5005512;28;20232;-90
2021/08/14 08:45:51;;;;;;;18.00;14.80;;;22.30;99.90;;;;;;5009584;28;20194;-91
2021/08/14 08:48:23;;;;;;;18.73;14.30;;;22.20;99.90;;;;;;5022090;28;20795;-91
2021/08/14 08:51:04;;;;;;;16.33;13.47;;;22.20;99.90;;;;;;5005726;28;20213;-91
2021/08/14 08:53:35;;;;;;;16.47;13.37;;;22.20;99.90;;;;;;5025312;28;20228;-91
2021/08/14 08:56:09;;;;;;;15.07;11.43;;;22.10;99.90;;;;;;5021179;28;20205;-92
2021/08/14 08:58:40;;;;;;;20.57;10.50;;;22.00;99.90;;;;;;5016434;28;20264;-91
2021/08/14 09:01:12;;;;;;;15.30;9.53;;;22.00;99.90;;;;;;5020505;28;20205;-92
2021/08/14 09:03:44;;;;;;;11.77;8.73;;;22.00;99.90;;;;;;5022585;28;20300;-91
2021/08/14 09:06:17;;;;;;;14.37;8.00;;;21.90;99.90;;;;;;5023555;28;20209;-92
2021/08/14 09:09:14;;;;;;;12.63;7.07;;;21.80;99.90;;;;;;5022457;28;20783;-91
2021/08/14 09:12:03;;;;;;;13.73;7.50;;;21.80;99.90;;;;;;4989878;28;20248;-91
2021/08/14 09:14:49;;;;;;;11.70;6.90;;;21.80;99.90;;;;;;5002813;28;20274;-92
2021/08/14 09:19:49;;;;;;;9.17;6.40;;;21.70;99.90;;;;;;5020853;28;20225;-90
2021/08/14 09:22:26;;;;;;;10.80;7.20;;;21.70;99.90;;;;;;5063466;22;20202;-92
2021/08/14 09:25:11;;;;;;;11.87;6.30;;;21.60;99.90;;;;;;4992457;28;20264;-92
2021/08/14 09:28:00;;;;;;;13.17;6.73;;;21.60;99.90;;;;;;5023404;28;20244;-92
2021/08/14 09:30:49;;;;;;;14.23;7.37;;;21.60;99.90;;;;;;5032553;28;20920;-91
2021/08/14 09:33:26;;;;;;;12.57;7.33;;;21.60;99.90;;;;;;5020901;28;20252;-92
2021/08/14 09:35:59;;;;;;;11.03;6.77;;;21.50;99.90;;;;;;5021123;28;20244;-91
2021/08/14 09:38:42;;;;;;;12.37;7.47;;;21.50;99.90;;;;;;5020896;28;20236;-92
2021/08/14 09:41:17;;;;;;;12.20;6.77;;;21.40;99.90;;;;;;5021115;28;20209;-92
2021/08/14 09:43:52;;;;;;;12.07;6.90;;;21.40;99.90;;;;;;5021960;28;20697;-91
2021/08/14 09:46:24;;;;;;;12.90;6.47;;;21.40;99.90;;;;;;5030476;28;20212;-91
2021/08/14 09:48:56;;;;;;;10.77;6.17;;;21.40;99.90;;;;;;5038067;28;20252;-91
2021/08/14 09:51:30;;;;;;;10.33;6.40;;;21.30;99.90;;;;;;5034285;28;20221;-89
2021/08/14 09:54:04;;;;;;;12.70;6.70;;;21.30;99.90;;;;;;5021909;28;20194;-91
2021/08/14 09:56:37;;;;;;;11.13;6.90;;;21.30;99.90;;;;;;5038909;28;20193;-90
2021/08/14 09:59:10;;;;;;;12.00;6.20;;;21.20;99.90;;;;;;5022527;28;20193;-92
2021/08/14 10:01:43;;;;;;;10.40;6.40;;;21.20;99.90;;;;;;5018435;28;20588;-91
2021/08/14 10:04:18;;;;;;;14.13;6.27;;;21.20;99.90;;;;;;5028232;28;20201;-91
2021/08/14 10:06:52;;;;;;;16.50;6.13;;;21.10;99.90;;;;;;5039355;28;20209;-91
2021/08/14 10:09:24;;;;;;;12.50;6.10;;;21.10;99.90;;;;;;5020375;28;20241;-91
2021/08/14 10:11:56;;;;;;;11.20;5.73;;;21.10;99.90;;;;;;5032708;28;20249;-91
2021/08/14 10:14:31;;;;;;;13.13;6.30;;;21.00;99.90;;;;;;5026174;28;20217;-92
2021/08/14 10:17:03;;;;;;;11.60;5.63;;;21.00;99.90;;;;;;5025434;28;20205;-92
2021/08/14 10:19:35;;;;;;;11.70;5.93;;;21.00;99.90;;;;;;5033480;28;20229;-91
2021/08/14 10:22:08;;;;;;;12.10;6.40;;;20.90;99.90;;;;;;5022826;28;20217;-91
2021/08/14 10:24:42;;;;;;;11.03;5.83;;;20.90;99.90;;;;;;5037669;28;20202;-91
2021/08/14 10:27:16;;;;;;;11.97;5.37;;;20.80;99.90;;;;;;5026383;28;20267;-91
2021/08/14 10:29:52;;;;;;;12.07;5.57;;;20.70;99.90;;;;;;5022442;28;20206;-91
2021/08/14 10:32:51;;;;;;;11.20;5.50;;;20.70;99.90;;;;;;5020665;28;20233;-91
2021/08/14 10:35:40;;;;;;;11.37;5.10;;;20.60;99.90;;;;;;5067721;22;20240;-92
2021/08/14 10:38:38;;;;;;;11.60;5.50;;;20.60;99.90;;;;;;5083384;28;20267;-93
2021/08/14 10:41:11;;;;;;;11.80;5.57;;;20.60;99.90;;;;;;5078017;28;20203;-92
2021/08/14 10:46:41;;;;;;;9.87;5.60;;;20.40;99.90;;;;;;4965058;28;20256;-92
2021/08/14 10:49:14;;;;;;;10.50;5.30;;;20.40;99.90;;;;;;4964267;29;20267;-90
2021/08/14 10:52:11;;;;;;;12.13;5.07;;;20.40;99.90;;;;;;4960537;29;20240;-91
2021/08/14 10:55:09;;;;;;;10.07;5.27;;;20.40;99.90;;;;;;4926328;29;20620;-91
2021/08/14 10:57:49;;;;;;;8.97;4.83;;;20.30;99.90;;;;;;4942139;29;20247;-91
2021/08/14 11:00:29;;;;;;;9.90;5.00;;;20.30;99.90;;;;;;4941482;28;20231;-91
2021/08/14 11:03:15;;;;;;;12.43;5.47;;;20.30;99.90;;;;;;4960098;28;20211;-91
2021/08/14 11:05:48;;;;;;;8.60;5.10;;;20.20;99.90;;;;;;4961213;29;20223;-90
2021/08/14 11:08:32;;;;;;;10.00;5.13;;;20.20;99.90;;;;;;4960948;29;20267;-91
2021/08/14 11:11:24;;;;;;;10.73;5.27;;;20.20;99.90;;;;;;4960188;29;20211;-90
2021/08/14 11:14:12;;;;;;;11.77;5.27;;;20.10;99.90;;;;;;4959637;29;20211;-90
2021/08/14 11:17:01;;;;;;;7.57;4.47;;;20.10;99.90;;;;;;4960399;29;20652;-92
2021/08/14 11:19:55;;;;;;;9.83;5.23;;;20.10;99.90;;;;;;4961399;29;20251;-91
2021/08/14 11:22:32;;;;;;;13.23;5.43;;;20.00;99.90;;;;;;4960722;29;20212;-91
2021/08/14 11:25:07;;;;;;;13.40;6.27;;;20.00;99.90;;;;;;4962327;29;20211;-91
2021/08/14 11:27:38;;;;;;;10.73;5.70;;;19.90;99.90;;;;;;4962099;29;20734;-91
2021/08/14 11:30:11;;;;;;;12.30;5.50;;;19.90;99.90;;;;;;4974424;29;20203;-94
2021/08/14 11:32:45;;;;;;;8.60;5.23;;;19.90;99.90;;;;;;4965853;29;20664;-91
2021/08/14 11:35:20;;;;;;;14.27;6.10;;;19.80;99.90;;;;;;4963719;29;20214;-91
2021/08/14 11:37:54;;;;;;;9.83;5.13;;;19.80;99.90;;;;;;4963385;29;20207;-91
2021/08/14 11:40:29;;;;;;;9.87;5.00;;;19.70;99.90;;;;;;4963449;29;20661;-92
2021/08/14 11:43:02;;;;;;;9.97;5.27;;;19.70;99.90;;;;;;4961650;29;20215;-92
2021/08/14 11:45:35;;;;;;;9.03;5.37;;;19.70;99.90;;;;;;4960372;29;20219;-91
2021/08/14 11:48:08;;;;;;;14.50;6.03;;;19.60;99.90;;;;;;4961356;29;20272;-90
2021/08/14 11:50:43;;;;;;;12.27;5.77;;;19.60;99.90;;;;;;4964449;28;20251;-91
2021/08/14 11:53:15;;;;;;;12.50;5.53;;;19.60;99.90;;;;;;4974444;28;20202;-91
2021/08/14 11:55:46;;;;;;;10.63;5.30;;;19.60;99.90;;;;;;4978117;28;20212;-91
2021/08/14 11:58:18;;;;;;;10.73;5.47;;;19.60;99.90;;;;;;4978010;28;20284;-91
2021/08/14 12:00:49;;;;;;;10.87;5.20;;;19.60;99.90;;;;;;4977652;28;20184;-90
2021/08/14 12:03:22;;;;;;;9.10;5.37;;;19.50;99.90;;;;;;4977204;28;20230;-91
2021/08/14 12:06:07;;;;;;;9.23;5.30;;;19.50;99.90;;;;;;4978347;28;20223;-92
2021/08/14 12:08:41;;;;;;;10.63;5.57;;;19.50;99.90;;;;;;4978387;28;20232;-90
2021/08/14 12:11:15;;;;;;;10.93;5.97;;;19.40;99.90;;;;;;4975844;28;20230;-90
2021/08/14 12:13:48;;;;;;;10.80;5.77;;;19.40;99.90;;;;;;4977580;28;20203;-91
2021/08/14 12:16:21;;;;;;;11.43;5.73;;;19.40;99.90;;;;;;4977671;28;20195;-91
2021/08/14 12:18:53;;;;;;;12.23;5.87;;;19.40;99.90;;;;;;4977241;29;20215;-91
2021/08/14 12:21:29;;;;;;;12.83;6.10;;;19.30;99.90;;;;;;4975765;28;20187;-91
2021/08/14 12:24:08;;;;;;;10.23;5.60;;;19.30;99.90;;;;;;4975721;29;20222;-91
2021/08/14 12:26:40;;;;;;;11.73;5.87;;;19.30;99.90;;;;;;4974847;28;20237;-92
2021/08/14 12:29:13;;;;;;;10.40;5.40;;;19.30;99.90;;;;;;4972050;28;20231;-91
2021/08/14 12:31:49;;;;;;;16.63;6.13;;;19.30;99.90;;;;;;4971330;29;20727;-91
2021/08/14 12:34:24;;;;;;;11.93;5.73;;;19.30;99.90;;;;;;4968393;28;20211;-92
2021/08/14 12:37:08;;;;;;;11.03;4.87;;;19.20;99.90;;;;;;4977705;28;20238;-91
2021/08/14 12:39:48;;;;;;;11.50;5.50;;;19.20;99.90;;;;;;4978002;28;20243;-90
2021/08/14 12:42:22;;;;;;;10.60;5.17;;;19.20;99.90;;;;;;4976012;28;20248;-89
2021/08/14 12:44:54;;;;;;;11.20;5.50;;;19.20;99.90;;;;;;4975054;28;20338;-91
2021/08/14 12:47:30;;;;;;;11.43;5.67;;;19.10;99.90;;;;;;4965214;29;20306;-90
2021/08/14 12:50:24;;;;;;;12.50;5.93;;;19.10;99.90;;;;;;4949301;29;20231;-91
2021/08/14 12:53:01;;;;;;;10.27;5.00;;;19.10;99.90;;;;;;4961700;29;20219;-91
2021/08/14 12:55:40;;;;;;;10.93;5.27;;;19.10;99.90;;;;;;4941498;29;20208;-91
2021/08/14 12:58:13;;;;;;;10.47;5.10;;;19.10;99.90;;;;;;4941950;29;20200;-91
2021/08/14 13:00:48;;;;;;;10.57;5.03;;;19.10;99.90;;;;;;4957683;29;20215;-91
2021/08/14 13:03:20;;;;;;;11.37;5.17;;;19.10;99.90;;;;;;4960194;29;20214;-91
2021/08/14 13:05:52;;;;;;;12.10;5.17;;;19.00;99.90;;;;;;4960606;29;20223;-90
2021/08/14 13:08:25;;;;;;;11.50;5.10;;;19.00;99.90;;;;;;4943639;29;20278;-91
2021/08/14 13:10:57;;;;;;;11.90;5.37;;;19.00;99.90;;;;;;4959906;29;20199;-91
2021/08/14 13:13:29;;;;;;;11.40;5.30;;;19.00;99.90;;;;;;4959900;29;20211;-90
2021/08/14 13:16:00;;;;;;;9.30;5.30;;;19.00;99.90;;;;;;4949576;29;20243;-91
2021/08/14 13:18:32;;;;;;;9.33;5.30;;;19.00;99.90;;;;;;4941185;29;20216;-92
2021/08/14 13:21:07;;;;;;;11.17;5.33;;;18.90;99.90;;;;;;4959634;29;20250;-91
2021/08/14 13:23:42;;;;;;;11.63;5.40;;;19.00;99.90;;;;;;4943333;28;20222;-91
2021/08/14 13:26:13;;;;;;;11.53;4.97;;;19.00;99.90;;;;;;4962847;29;20215;-91
2021/08/14 13:28:45;;;;;;;15.87;5.33;;;18.90;99.90;;;;;;4962815;29;20216;-91
2021/08/14 13:31:17;;;;;;;11.23;5.17;;;18.90;99.90;;;;;;4946281;29;20703;-92
2021/08/14 13:33:48;;;;;;;10.73;5.20;;;18.90;99.90;;;;;;4963802;29;20583;-91
2021/08/14 13:36:20;;;;;;;12.63;5.33;;;18.90;99.90;;;;;;4946786;29;20216;-91
2021/08/14 13:38:54;;;;;;;9.80;4.70;;;18.80;99.90;;;;;;4962944;29;20633;-91
2021/08/14 13:41:25;;;;;;;12.23;5.20;;;18.80;99.90;;;;;;4962051;29;20358;-91
2021/08/14 13:43:57;;;;;;;14.00;4.80;;;18.80;99.90;;;;;;4962998;29;20238;-88
2021/08/14 13:46:29;;;;;;;9.67;4.90;;;18.80;99.90;;;;;;4962526;29;20218;-90
2021/08/14 13:49:04;;;;;;;9.77;4.70;;;18.90;99.90;;;;;;4962264;29;20238;-90